To NAV CANADA Home Page Login to a new session Search on AWWS site Disclaimer Vers la page française équivalente Tips FAQ What's new on the site To the Forecasts and Observations / NOTAM section To "File a Flight Plan" website Publications and other links Update of the User's profile FIC Telephone Numbers My Weather Data Folder Route Weather Data Regional Weather Data Local Weather Data To the Forecasts and Observations / NOTAM section
Request Generated 02/23/2020 at 10:31:54 UTC . Weather information available at that time is displayed.

METAR/TAF

SACHS HARBOUR (DAVID NASOGALUAK JR. SAARYUAQ)/NT    

LWIS CYSY 231000Z AUTO 18005KT M23/M30 A3003=
LWIS CYSY 230900Z AUTO 13007KT M23/M31 A3001=
LWIS CYSY 230800Z AUTO 12006KT M23/M30 A3000=

*** REMARK        : Forecast period has ended; this was the last TAF issued
*** REMARQUE : La période de prévision est échue; ceci était le dernier TAF qui a été émis
TAF CYSY 221838Z 2219/2224 11012KT P6SM FEW080 TEMPO 2219/2224 5SM IC
RMK NXT FCST WILL BE ISSUED AT 231545Z=
Your time UTC time
Weather data provided by Environment Canada and NAV CANADA